Terminal Aerodrome Forecast
Issued by NWS Sioux Falls, SD

Home | Current Version | Previous Version | Graphics & Text | Print | Product List | Glossary Off
Versions: 1 2 3 4 5 6 7 8 9 10 11 12 13 14 15 16 17

997
FTUS43 KFSD 281120
TAFFSD
TAF
KFSD 281120Z 2812/2912 VRB03KT 2SM BR SCT002 SCT200
      TEMPO 2812/2814 1/2SM FG BKN002
     FM281400 08003KT 4SM BR FEW070 SCT200
     FM281500 08004KT P6SM FEW070 SCT200
     FM290200 09006KT P6SM OVC100
     FM290800 10005KT 5SM BR OVC020=

USA.gov is the U.S. government's official web portal to all federal, state and local government web resources and services.